Time;durP1;ratioP1;P1;durP2;ratioP2;P2;SDS_P1;SDS_P2;PMS_P1;PMS_P2;Temp;Humidity;BMP_temperature;BMP_pressure;BME280_temperature;BME280_humidity;BME280_pressure;Samples;Min_cycle;Max_cycle;Signal;HPM_P1;HPM_P2
2023/10/10 00:02:07;;;;;;;30.20;27.50;;;;;;;7.08;100.00;98186.58;110187;1279;22144;-88
2023/10/10 00:04:35;;;;;;;21.40;19.70;;;;;;;7.09;100.00;98187.49;110177;1279;22311;-87
2023/10/10 00:07:08;;;;;;;24.50;22.40;;;;;;;7.09;100.00;98190.66;110178;1279;22180;-88
2023/10/10 00:09:36;;;;;;;25.00;22.90;;;;;;;7.06;100.00;98195.33;110176;1279;22425;-87
2023/10/10 00:12:04;;;;;;;26.60;24.40;;;;;;;7.04;100.00;98192.58;110155;1279;23057;-86
2023/10/10 00:14:32;;;;;;;27.40;25.20;;;;;;;7.02;100.00;98185.99;110164;1279;22145;-88
2023/10/10 00:17:00;;;;;;;27.90;25.30;;;;;;;7.02;100.00;98183.48;110166;1279;22221;-87
2023/10/10 00:19:29;;;;;;;25.00;22.90;;;;;;;7.03;100.00;98179.29;110148;1279;22103;-88
2023/10/10 00:22:00;;;;;;;24.20;22.00;;;;;;;7.03;100.00;98169.55;110160;1279;22805;-89
2023/10/10 00:24:31;;;;;;;23.20;21.30;;;;;;;7.03;100.00;98173.50;110154;1279;22138;-88
2023/10/10 00:27:35;;;;;;;27.00;24.60;;;;;;;7.02;100.00;98176.89;110156;1279;22222;-85
2023/10/10 00:29:54;;;;;;;28.10;25.70;;;;;;;7.01;100.00;98179.56;110171;1279;22278;-86
2023/10/10 00:32:22;;;;;;;25.20;23.20;;;;;;;6.99;100.00;98181.38;110174;1279;22930;-87
2023/10/10 00:34:51;;;;;;;30.70;28.10;;;;;;;6.99;100.00;98189.30;110079;1275;22282;-85
2023/10/10 00:37:34;;;;;;;32.70;29.90;;;;;;;7.03;100.00;98191.52;110167;1279;22268;-87
2023/10/10 00:40:09;;;;;;;26.70;24.30;;;;;;;7.07;100.00;98189.05;110156;1279;22200;-86
2023/10/10 00:42:40;;;;;;;27.00;24.80;;;;;;;7.09;100.00;98191.20;110103;1279;22678;-87
2023/10/10 00:45:10;;;;;;;27.30;24.90;;;;;;;7.08;100.00;98192.64;110173;1279;22215;-86
2023/10/10 00:47:44;;;;;;;34.80;32.00;;;;;;;7.07;100.00;98196.02;110066;1279;22917;-86
2023/10/10 00:50:16;;;;;;;40.00;36.60;;;;;;;7.09;100.00;98186.69;110162;1279;22197;-86
2023/10/10 00:52:52;;;;;;;33.90;31.00;;;;;;;7.10;100.00;98186.11;110145;1279;22083;-86
2023/10/10 00:55:24;;;;;;;31.00;28.40;;;;;;;7.10;100.00;98179.77;110194;1279;22860;-85
2023/10/10 00:57:58;;;;;;;28.90;26.40;;;;;;;7.11;100.00;98173.88;110189;1279;22203;-87
2023/10/10 01:00:31;;;;;;;32.10;29.60;;;;;;;7.11;100.00;98172.59;110285;1279;22253;-84
2023/10/10 01:03:07;;;;;;;32.80;30.30;;;;;;;7.10;100.00;98170.23;110382;1279;22112;-86
2023/10/10 01:05:42;;;;;;;32.60;29.70;;;;;;;7.06;100.00;98168.52;110244;1279;22218;-86
2023/10/10 01:08:10;;;;;;;33.60;30.50;;;;;;;7.02;100.00;98173.19;110173;1279;22985;-86
2023/10/10 01:10:49;;;;;;;31.30;28.60;;;;;;;6.99;100.00;98167.83;110079;1279;22429;-86
2023/10/10 01:13:17;;;;;;;29.90;27.30;;;;;;;7.01;100.00;98168.15;110151;1279;22195;-87
2023/10/10 01:15:45;;;;;;;30.40;27.80;;;;;;;7.06;100.00;98168.20;110177;1279;22223;-87
2023/10/10 01:18:15;;;;;;;32.90;30.10;;;;;;;7.09;100.00;98170.34;110101;1279;22177;-87
2023/10/10 01:20:46;;;;;;;32.60;29.80;;;;;;;7.10;100.00;98171.20;110138;1279;22136;-86
2023/10/10 01:23:15;;;;;;;33.70;30.80;;;;;;;7.09;100.00;98172.42;110162;1279;22190;-85
2023/10/10 01:25:45;;;;;;;36.20;33.20;;;;;;;7.09;100.00;98176.08;110064;1279;22945;-87
2023/10/10 01:33:35;;;;;;;33.80;31.00;;;;;;;7.06;100.00;98175.82;110197;1279;22196;-86
2023/10/10 01:36:11;;;;;;;35.20;32.10;;;;;;;7.10;100.00;98177.52;110241;1279;22224;-88
2023/10/10 01:38:55;;;;;;;36.10;33.00;;;;;;;7.11;100.00;98177.36;110117;1280;22245;-87
2023/10/10 01:41:31;;;;;;;43.60;40.00;;;;;;;7.09;100.00;98181.38;110169;1279;23042;-87
2023/10/10 01:44:12;;;;;;;40.20;36.80;;;;;;;7.05;100.00;98180.80;110262;1279;22195;-86
2023/10/10 01:46:42;;;;;;;35.50;32.40;;;;;;;7.01;100.00;98179.62;110164;1279;23383;-87
2023/10/10 01:49:19;;;;;;;34.70;31.80;;;;;;;6.98;100.00;98182.89;110072;1279;22121;-88
2023/10/10 01:51:54;;;;;;;33.90;31.00;;;;;;;6.97;100.00;98178.70;110166;1279;22299;-88
2023/10/10 01:54:34;;;;;;;34.30;31.40;;;;;;;6.95;100.00;98181.48;110186;1279;22205;-88
2023/10/10 01:57:20;;;;;;;32.90;30.00;;;;;;;6.98;100.00;98188.77;110182;1279;22214;-87
2023/10/10 01:59:51;;;;;;;37.00;33.50;;;;;;;7.00;100.00;98188.46;110108;1279;22187;-87
2023/10/10 02:02:23;;;;;;;36.60;33.50;;;;;;;6.99;100.00;98187.77;110154;1279;23027;-87
2023/10/10 02:04:56;;;;;;;34.00;30.80;;;;;;;6.98;100.00;98182.88;110158;1279;22221;-88
2023/10/10 02:07:31;;;;;;;32.30;29.50;;;;;;;6.96;100.00;98174.69;110150;1279;22671;-86
2023/10/10 02:10:12;;;;;;;31.50;28.70;;;;;;;6.95;100.00;98172.98;110079;1279;22993;-86
2023/10/10 02:12:44;;;;;;;29.20;26.50;;;;;;;6.97;100.00;98174.57;110120;1279;22102;-87
2023/10/10 02:15:18;;;;;;;34.50;31.40;;;;;;;6.99;100.00;98172.05;110207;1252;22197;-88
2023/10/10 02:17:51;;;;;;;33.20;30.20;;;;;;;6.97;100.00;98170.72;110318;1278;22269;-87
2023/10/10 02:22:56;;;;;;;32.90;30.20;;;;;;;6.93;100.00;98177.05;110241;1278;22189;-87
2023/10/10 02:25:37;;;;;;;36.10;32.70;;;;;;;6.93;100.00;98180.10;110316;1278;22254;-88
2023/10/10 02:28:19;;;;;;;190.10;96.10;;;;;;;6.97;100.00;98175.65;110333;1278;22942;-87
2023/10/10 02:30:52;;;;;;;45.90;40.30;;;;;;;6.99;100.00;98174.95;110341;1278;22189;-88
2023/10/10 02:35:55;;;;;;;40.40;36.70;;;;;;;7.02;100.00;98179.52;110323;1278;22779;-87
2023/10/10 02:38:40;;;;;;;34.40;31.40;;;;;;;7.00;100.00;98180.80;110326;1275;22253;-87
2023/10/10 02:43:56;;;;;;;32.20;29.30;;;;;;;7.00;100.00;98179.34;110235;1278;22866;-87
2023/10/10 02:46:35;;;;;;;29.40;26.50;;;;;;;7.00;100.00;98180.73;110092;1278;22211;-87
2023/10/10 02:49:12;;;;;;;26.40;24.00;;;;;;;7.01;100.00;98185.89;110310;1278;22244;-87
2023/10/10 02:51:43;;;;;;;25.20;22.80;;;;;;;7.05;100.00;98185.66;110406;1278;22192;-87
2023/10/10 02:59:50;;;;;;;27.10;24.60;;;;;;;6.96;100.00;98188.94;110308;1278;22214;-87
2023/10/10 03:02:20;;;;;;;25.40;22.90;;;;;;;6.97;100.00;98184.92;110301;1278;22191;-87
2023/10/10 03:07:30;;;;;;;25.10;22.70;;;;;;;7.04;100.00;98188.08;110200;1278;22199;-88
2023/10/10 03:12:32;;;;;;;26.70;24.50;;;;;;;7.11;100.00;98191.78;110283;1278;22252;-87
2023/10/10 03:15:51;;;;;;;24.70;22.50;;;;;;;7.11;100.00;98188.83;110270;1278;23097;-86
2023/10/10 03:28:34;;;;;;;27.70;25.40;;;;;;;7.03;100.00;98178.02;110127;1279;22181;-86
2023/10/10 05:23:53;;;;;;;25.80;23.60;;;;;;;6.82;100.00;98219.95;110239;1278;22990;-87
2023/10/10 05:26:21;;;;;;;26.60;24.50;;;;;;;6.84;100.00;98220.48;110247;1278;22212;-86
2023/10/10 05:28:49;;;;;;;28.00;25.60;;;;;;;6.90;100.00;98219.79;110281;1278;22595;-87
2023/10/10 05:31:21;;;;;;;27.50;25.30;;;;;;;6.91;100.00;98222.47;110260;1278;22272;-88
2023/10/10 05:33:50;;;;;;;29.00;26.80;;;;;;;6.87;100.00;98224.83;110273;1271;22221;-86
2023/10/10 05:36:19;;;;;;;27.10;24.80;;;;;;;6.82;100.00;98228.73;110387;1278;22175;-87
2023/10/10 05:39:21;;;;;;;29.50;27.10;;;;;;;6.82;100.00;98224.02;110493;1278;22136;-88
2023/10/10 05:41:54;;;;;;;25.20;23.10;;;;;;;6.84;100.00;98221.77;110279;1278;22211;-86
2023/10/10 05:44:22;;;;;;;29.20;26.80;;;;;;;6.89;100.00;98224.08;110258;1278;22186;-88
2023/10/10 05:46:50;;;;;;;31.40;28.60;;;;;;;6.96;100.00;98222.75;110154;1279;22186;-87
2023/10/10 05:49:18;;;;;;;28.50;26.00;;;;;;;6.99;100.00;98224.57;110176;1276;22199;-88
2023/10/10 05:51:46;;;;;;;28.60;26.20;;;;;;;6.96;100.00;98228.11;110250;1278;22898;-88
2023/10/10 05:54:14;;;;;;;29.60;27.20;;;;;;;6.92;100.00;98233.27;110234;1278;22224;-86
2023/10/10 05:56:46;;;;;;;28.10;25.80;;;;;;;6.90;100.00;98233.41;110264;1278;22187;-87
2023/10/10 05:59:14;;;;;;;28.30;25.70;;;;;;;6.92;100.00;98229.92;110094;1278;214180;-86
2023/10/10 06:01:43;;;;;;;27.20;24.70;;;;;;;6.92;100.00;98232.34;110260;1278;22201;-88
2023/10/10 06:04:11;;;;;;;26.10;24.00;;;;;;;7.00;100.00;98241.30;110236;1278;22082;-87
2023/10/10 06:06:42;;;;;;;26.00;23.70;;;;;;;7.04;100.00;98244.84;110254;1278;23389;-87
2023/10/10 06:09:18;;;;;;;25.70;23.60;;;;;;;7.03;100.00;98243.07;110247;1278;22178;-88
2023/10/10 06:11:47;;;;;;;26.20;24.10;;;;;;;7.04;100.00;98254.21;110269;1278;23045;-88
2023/10/10 06:14:15;;;;;;;24.30;22.30;;;;;;;7.09;100.00;98257.44;110243;1278;22404;-86
2023/10/10 06:16:44;;;;;;;27.30;25.00;;;;;;;7.16;100.00;98252.30;110264;1278;22811;-88
2023/10/10 06:19:20;;;;;;;22.50;20.70;;;;;;;7.22;100.00;98249.92;110287;1267;22197;-88
2023/10/10 06:21:51;;;;;;;24.80;22.90;;;;;;;7.29;100.00;98249.39;110236;1278;22177;-86
2023/10/10 06:24:19;;;;;;;23.60;21.70;;;;;;;7.34;100.00;98247.04;110290;1278;22964;-86
2023/10/10 06:26:49;;;;;;;24.90;22.80;;;;;;;7.37;100.00;98240.96;110297;1278;22225;-87
2023/10/10 06:29:17;;;;;;;24.00;21.90;;;;;;;7.37;100.00;98239.96;110270;1278;22206;-87
2023/10/10 06:31:45;;;;;;;23.00;21.00;;;;;;;7.38;100.00;98238.45;110272;1278;22818;-87
2023/10/10 06:34:21;;;;;;;22.90;21.10;;;;;;;7.45;100.00;98248.20;110253;1278;22828;-86
2023/10/10 06:36:51;;;;;;;22.70;20.70;;;;;;;7.54;100.00;98243.80;110273;1278;22476;-87
2023/10/10 06:39:19;;;;;;;22.10;20.40;;;;;;;7.61;100.00;98240.90;110255;1278;22216;-87
2023/10/10 06:41:50;;;;;;;22.30;20.50;;;;;;;7.66;100.00;98239.39;110283;1278;22289;-87
2023/10/10 06:44:39;;;;;;;21.30;19.50;;;;;;;7.70;100.00;98235.30;110290;1278;22209;-86
2023/10/10 06:47:11;;;;;;;20.40;18.60;;;;;;;7.78;100.00;98237.22;110146;1279;22947;-87
2023/10/10 06:50:00;;;;;;;19.70;18.10;;;;;;;7.85;100.00;98244.13;110278;1278;22174;-87
2023/10/10 06:52:36;;;;;;;20.10;18.20;;;;;;;7.89;100.00;98245.83;110256;1278;22187;-87
2023/10/10 06:55:12;;;;;;;19.80;18.10;;;;;;;7.98;100.00;98243.39;110160;1278;22224;-87
2023/10/10 06:57:41;;;;;;;20.20;18.40;;;;;;;8.01;100.00;98248.59;110253;1278;22199;-86
2023/10/10 07:02:49;;;;;;;20.90;18.90;;;;;;;8.00;100.00;98258.61;110080;1278;22425;-86
2023/10/10 07:05:19;;;;;;;20.40;18.60;;;;;;;8.03;100.00;98261.14;110255;1278;22206;-87
2023/10/10 07:07:53;;;;;;;19.30;17.40;;;;;;;8.09;100.00;98265.47;110176;1279;22190;-87
2023/10/10 07:10:32;;;;;;;19.80;18.00;;;;;;;8.10;100.00;98254.99;110371;1278;22207;-86
2023/10/10 07:13:11;;;;;;;20.00;18.20;;;;;;;8.10;100.00;98253.33;110357;1278;22904;-88
2023/10/10 07:15:39;;;;;;;23.00;20.80;;;;;;;8.12;100.00;98256.50;110284;1278;22088;-86
2023/10/10 07:18:32;;;;;;;22.30;20.30;;;;;;;8.17;100.00;98258.30;110275;1278;22216;-87
2023/10/10 07:21:04;;;;;;;21.10;18.90;;;;;;;8.22;100.00;98263.81;110281;1278;22184;-88
2023/10/10 07:23:37;;;;;;;22.00;19.90;;;;;;;8.31;100.00;98266.89;110279;1278;22994;-88
2023/10/10 07:26:20;;;;;;;21.10;19.10;;;;;;;8.39;100.00;98274.02;110175;1278;22200;-87
2023/10/10 07:28:49;;;;;;;22.40;20.50;;;;;;;8.45;100.00;98272.94;110273;1278;22144;-87
2023/10/10 07:31:20;;;;;;;23.30;21.20;;;;;;;8.49;100.00;98275.12;110263;1279;22207;-86
2023/10/10 07:34:15;;;;;;;23.90;21.90;;;;;;;8.58;100.00;98275.34;110237;1278;22130;-86
2023/10/10 07:36:50;;;;;;;23.80;21.60;;;;;;;8.69;100.00;98283.73;110288;1278;22172;-87
2023/10/10 07:39:33;;;;;;;21.80;19.90;;;;;;;8.79;100.00;98291.24;110290;1278;22202;-87
2023/10/10 07:42:02;;;;;;;21.50;19.40;;;;;;;8.86;100.00;98291.52;110262;1278;22191;-87
2023/10/10 07:44:30;;;;;;;21.90;19.60;;;;;;;8.86;100.00;98286.36;110167;1278;22211;-87
2023/10/10 07:47:19;;;;;;;22.30;20.30;;;;;;;8.82;100.00;98283.39;110278;1278;22208;-87
2023/10/10 07:49:50;;;;;;;21.50;19.60;;;;;;;8.77;100.00;98284.06;110289;1278;22981;-88
2023/10/10 07:52:20;;;;;;;22.60;20.40;;;;;;;8.77;100.00;98283.58;110281;1278;22281;-87
2023/10/10 07:54:53;;;;;;;21.40;19.30;;;;;;;8.82;100.00;98281.18;110316;1278;22214;-87
2023/10/10 07:57:22;;;;;;;22.60;20.60;;;;;;;8.88;100.00;98282.50;110564;1278;22206;-87
2023/10/10 07:59:57;;;;;;;24.30;22.10;;;;;;;8.94;100.00;98288.76;110433;1279;22149;-88
2023/10/10 08:02:31;;;;;;;25.50;23.20;;;;;;;9.03;100.00;98284.02;110084;1278;22209;-88
2023/10/10 08:05:01;;;;;;;25.30;23.10;;;;;;;9.13;100.00;98284.60;110283;1278;22214;-87
2023/10/10 08:07:29;;;;;;;24.60;22.30;;;;;;;9.19;100.00;98288.48;110256;1278;22209;-88
2023/10/10 08:12:43;;;;;;;21.80;19.90;;;;;;;9.31;100.00;98296.61;110271;1278;22145;-88
2023/10/10 08:15:20;;;;;;;25.50;23.40;;;;;;;9.30;100.00;98298.09;110192;1278;22223;-88
2023/10/10 08:17:52;;;;;;;27.90;25.30;;;;;;;9.35;100.00;98295.77;110262;1278;22923;-88
2023/10/10 08:23:11;;;;;;;29.20;26.60;;;;;;;9.40;100.00;98299.67;110292;1278;22106;-87
2023/10/10 08:25:39;;;;;;;23.60;21.50;;;;;;;9.50;100.00;98303.77;110275;1278;22342;-86
2023/10/10 08:28:07;;;;;;;25.50;23.00;;;;;;;9.57;100.00;98312.23;110285;1278;22217;-87
2023/10/10 08:30:35;;;;;;;26.40;24.00;;;;;;;9.55;100.00;98312.99;110300;1278;22179;-88
2023/10/10 08:33:03;;;;;;;25.90;23.50;;;;;;;9.50;100.00;98318.41;110280;1278;22958;-87
2023/10/10 08:35:38;;;;;;;27.70;25.30;;;;;;;9.50;100.00;98310.40;110187;1265;22712;-87
2023/10/10 08:38:07;;;;;;;26.90;24.30;;;;;;;9.48;100.00;98313.70;110180;1278;22204;-87
2023/10/10 08:40:36;;;;;;;28.40;25.60;;;;;;;9.49;100.00;98314.81;110241;1278;22223;-87
2023/10/10 08:43:07;;;;;;;27.60;24.90;;;;;;;9.60;100.00;98315.05;110417;1278;22193;-87
2023/10/10 08:45:43;;;;;;;28.80;26.10;;;;;;;9.70;100.00;98316.80;110273;1278;22269;-87
2023/10/10 08:48:12;;;;;;;27.80;25.50;;;;;;;9.74;100.00;98319.62;110365;1278;22234;-88
2023/10/10 08:50:44;;;;;;;27.30;24.90;;;;;;;9.72;100.00;98319.69;110315;1275;22209;-87
2023/10/10 08:53:13;;;;;;;31.60;28.90;;;;;;;9.69;100.00;98319.77;110301;1278;23000;-87
2023/10/10 08:55:42;;;;;;;28.50;26.10;;;;;;;9.74;100.00;98318.77;110189;1278;22228;-87
2023/10/10 08:58:10;;;;;;;27.50;25.20;;;;;;;9.81;100.00;98313.52;110305;1278;22276;-87
2023/10/10 09:00:39;;;;;;;30.00;27.10;;;;;;;9.87;100.00;98313.63;110194;1278;22250;-88
2023/10/10 09:03:07;;;;;;;29.70;26.30;;;;;;;9.98;100.00;98308.84;110168;1278;22692;-87
2023/10/10 09:05:36;;;;;;;30.30;27.60;;;;;;;10.09;100.00;98315.52;110279;1278;22300;-88
2023/10/10 09:08:17;;;;;;;29.60;26.90;;;;;;;10.14;100.00;98317.02;110295;1278;22201;-86
2023/10/10 09:10:47;;;;;;;28.80;25.90;;;;;;;10.19;100.00;98318.21;110278;1278;22323;-87
2023/10/10 09:13:16;;;;;;;32.80;29.60;;;;;;;10.17;100.00;98318.98;110286;1278;22303;-87
2023/10/10 09:15:55;;;;;;;27.60;25.00;;;;;;;10.24;100.00;98316.94;110291;1278;23207;-87
2023/10/10 09:18:25;;;;;;;25.90;23.30;;;;;;;10.34;100.00;98315.28;110310;1278;21897;-84
2023/10/10 09:21:18;;;;;;;27.90;25.40;;;;;;;10.44;100.00;98313.55;110220;1278;22765;-87
2023/10/10 09:24:06;;;;;;;27.60;25.10;;;;;;;10.53;100.00;98315.77;110381;1278;22180;-88
2023/10/10 09:26:36;;;;;;;26.30;23.90;;;;;;;10.64;100.00;98312.13;110420;1278;22165;-88
2023/10/10 09:29:15;;;;;;;27.50;24.90;;;;;;;10.65;100.00;98311.90;110207;1278;22163;-88
2023/10/10 09:31:45;;;;;;;27.60;24.70;;;;;;;10.65;100.00;98313.30;110194;1278;22197;-87
2023/10/10 09:34:22;;;;;;;24.90;22.60;;;;;;;10.69;100.00;98315.30;110314;1278;22128;-87
2023/10/10 09:36:54;;;;;;;27.30;24.50;;;;;;;10.74;100.00;98318.31;110285;1278;22777;-87
2023/10/10 09:39:36;;;;;;;26.10;23.80;;;;;;;10.80;100.00;98314.30;110305;1278;22269;-86
2023/10/10 09:47:42;;;;;;;24.60;22.30;;;;;;;10.83;100.00;98318.36;110321;1278;22262;-88
2023/10/10 09:52:54;;;;;;;23.70;21.20;;;;;;;10.85;100.00;98315.25;110323;1278;22449;-86
2023/10/10 10:06:54;;;;;;;23.90;21.50;;;;;;;11.30;100.00;98309.00;110309;1274;22304;-87
2023/10/10 10:09:18;;;;;;;24.60;21.60;;;;;;;11.48;100.00;98309.75;110217;1278;22197;-87
2023/10/10 10:12:19;;;;;;;30.40;27.50;;;;;;;11.59;100.00;98305.20;110146;1278;22079;-87
2023/10/10 10:15:06;;;;;;;29.00;26.10;;;;;;;11.68;100.00;98298.85;110327;1278;22216;-88
2023/10/10 10:17:53;;;;;;;25.50;21.70;;;;;;;11.83;100.00;98304.77;110503;1278;22781;-87
2023/10/10 10:20:23;;;;;;;24.50;21.70;;;;;;;11.98;100.00;98306.37;110475;1278;22292;-88
2023/10/10 10:22:54;;;;;;;21.90;19.70;;;;;;;12.12;100.00;98306.33;110323;1278;22247;-88
2023/10/10 10:25:25;;;;;;;22.90;20.70;;;;;;;12.17;100.00;98304.88;110357;1278;22276;-87
2023/10/10 10:28:00;;;;;;;26.40;23.90;;;;;;;12.18;100.00;98304.36;110314;1278;22279;-87
2023/10/10 10:32:59;;;;;;;23.40;21.10;;;;;;;12.38;100.00;98302.04;110302;1278;22214;-88
2023/10/10 10:35:56;;;;;;;22.70;20.30;;;;;;;12.41;100.00;98306.52;110326;1278;22398;-87
2023/10/10 10:38:25;;;;;;;23.50;21.20;;;;;;;12.30;100.00;98300.83;110317;1278;22210;-87
2023/10/10 10:41:16;;;;;;;20.50;18.40;;;;;;;12.24;100.00;98301.34;110305;1278;22217;-86
2023/10/10 10:43:50;;;;;;;21.10;18.90;;;;;;;12.21;100.00;98301.66;110280;1278;22771;-88
2023/10/10 10:46:27;;;;;;;20.10;18.10;;;;;;;12.14;100.00;98301.15;110305;1278;22258;-87
2023/10/10 10:49:05;;;;;;;22.80;20.60;;;;;;;12.09;100.00;98299.30;110314;1278;22221;-87
2023/10/10 10:51:42;;;;;;;23.30;21.20;;;;;;;12.05;100.00;98300.61;110307;1278;22294;-88
2023/10/10 10:57:02;;;;;;;21.60;19.20;;;;;;;12.07;100.00;98299.59;110324;1278;22314;-86
2023/10/10 10:59:38;;;;;;;21.80;19.50;;;;;;;12.10;100.00;98296.20;110327;1278;22239;-87
2023/10/10 11:02:16;;;;;;;21.20;18.70;;;;;;;12.13;100.00;98297.33;110174;1278;22242;-87
2023/10/10 11:04:49;;;;;;;20.90;18.90;;;;;;;12.18;100.00;98298.27;110321;1278;22292;-88
2023/10/10 11:07:29;;;;;;;21.40;19.50;;;;;;;12.23;100.00;98293.84;110321;1278;22315;-87
2023/10/10 11:10:35;;;;;;;22.40;20.20;;;;;;;12.28;100.00;98289.80;110344;1278;22168;-87
2023/10/10 11:12:48;;;;;;;22.00;19.70;;;;;;;12.36;99.90;98290.45;110308;1278;22362;-87
2023/10/10 11:15:16;;;;;;;21.60;19.40;;;;;;;12.35;99.73;98287.66;110330;1278;22198;-87
2023/10/10 11:17:53;;;;;;;21.10;17.80;;;;;;;12.34;99.80;98288.91;110319;1278;22223;-86
2023/10/10 11:20:29;;;;;;;21.00;18.80;;;;;;;12.41;99.97;98290.89;110341;1275;22174;-87
2023/10/10 11:23:11;;;;;;;24.90;20.40;;;;;;;12.44;99.85;98287.00;110341;1278;22200;-87
2023/10/10 11:25:58;;;;;;;27.60;20.00;;;;;;;12.38;99.39;98292.69;110298;1278;22219;-86
2023/10/10 11:28:37;;;;;;;22.60;20.20;;;;;;;12.27;99.30;98293.54;110302;1278;22328;-86
2023/10/10 11:31:07;;;;;;;22.00;19.90;;;;;;;12.19;99.43;98293.54;110357;1278;22196;-87
2023/10/10 11:33:48;;;;;;;21.90;19.20;;;;;;;12.09;99.39;98295.41;110335;1278;22929;-87
2023/10/10 11:36:37;;;;;;;19.90;18.00;;;;;;;12.04;99.66;98297.11;110319;1278;22179;-87
2023/10/10 11:39:31;;;;;;;21.80;19.70;;;;;;;12.04;99.15;98296.24;110321;1278;22162;-88
2023/10/10 11:42:04;;;;;;;24.50;21.60;;;;;;;12.02;99.35;98294.82;110347;1278;22186;-88
2023/10/10 11:44:33;;;;;;;22.20;19.70;;;;;;;12.02;99.37;98290.56;110326;1278;22197;-88
2023/10/10 11:47:07;;;;;;;22.90;20.20;;;;;;;11.93;98.36;98289.37;110331;1278;22188;-88
2023/10/10 11:49:36;;;;;;;21.70;19.30;;;;;;;11.86;98.72;98293.38;110342;1278;22208;-87
2023/10/10 11:52:19;;;;;;;21.70;19.50;;;;;;;11.85;98.84;98290.85;110346;1278;22950;-87
2023/10/10 11:54:47;;;;;;;22.40;19.00;;;;;;;11.91;98.85;98289.52;110194;1278;22248;-88
2023/10/10 11:57:15;;;;;;;21.10;18.60;;;;;;;12.00;99.51;98291.18;110321;1278;22224;-88
2023/10/10 11:59:46;;;;;;;20.90;18.60;;;;;;;12.11;98.97;98289.21;110358;1278;22200;-88
2023/10/10 12:02:17;;;;;;;19.70;17.70;;;;;;;12.15;99.14;98290.85;110277;1278;22212;-87
2023/10/10 12:04:46;;;;;;;22.10;20.00;;;;;;;12.15;99.00;98290.22;110152;1278;22893;-88
2023/10/10 12:07:14;;;;;;;25.60;21.30;;;;;;;12.13;98.60;98290.73;110310;1278;22212;-87
2023/10/10 12:09:44;;;;;;;22.10;19.70;;;;;;;12.09;98.44;98293.58;110345;1278;22219;-88
2023/10/10 12:12:13;;;;;;;21.80;18.70;;;;;;;12.07;98.43;98291.28;110286;1278;22929;-86
2023/10/10 12:14:42;;;;;;;21.30;17.90;;;;;;;12.06;98.39;98287.09;110339;1278;22369;-87
2023/10/10 12:17:13;;;;;;;22.00;18.60;;;;;;;12.06;98.27;98288.33;110202;1278;22332;-86
2023/10/10 12:19:43;;;;;;;21.50;18.90;;;;;;;12.06;98.46;98288.80;110366;1278;23022;-88
2023/10/10 12:22:12;;;;;;;24.00;18.60;;;;;;;12.10;98.93;98281.52;110312;1278;22188;-88
2023/10/10 12:24:40;;;;;;;23.20;20.10;;;;;;;12.13;98.73;98280.52;110360;1278;22208;-87
2023/10/10 12:27:07;;;;;;;24.20;21.50;;;;;;;12.16;98.76;98276.15;110323;1278;22187;-86
2023/10/10 12:29:39;;;;;;;21.70;18.70;;;;;;;12.14;98.26;98279.91;110310;1278;22316;-86
2023/10/10 12:32:15;;;;;;;23.50;18.60;;;;;;;12.17;98.53;98280.14;110322;1278;22257;-86
2023/10/10 12:34:47;;;;;;;23.00;19.90;;;;;;;12.24;98.32;98281.66;110207;1278;22202;-86
2023/10/10 12:37:15;;;;;;;21.50;17.80;;;;;;;12.29;98.45;98283.25;110466;1278;21992;-84
2023/10/10 12:39:44;;;;;;;20.10;17.20;;;;;;;12.30;98.41;98284.21;110544;1278;21953;-86
2023/10/10 12:42:12;;;;;;;20.20;17.90;;;;;;;12.29;98.45;98287.41;110409;1278;22773;-86
2023/10/10 12:44:47;;;;;;;18.80;16.60;;;;;;;12.32;98.48;98284.91;110346;1278;22183;-85
2023/10/10 12:47:17;;;;;;;21.70;18.50;;;;;;;12.32;98.60;98281.56;110336;1278;22142;-86
2023/10/10 12:49:46;;;;;;;18.90;17.00;;;;;;;12.32;98.23;98283.40;110306;1278;23088;-87
2023/10/10 12:52:17;;;;;;;19.00;16.70;;;;;;;12.34;98.49;98282.77;110353;1278;22183;-87
2023/10/10 12:54:47;;;;;;;20.50;16.30;;;;;;;12.38;98.45;98278.64;110324;1278;22267;-87
2023/10/10 12:57:16;;;;;;;20.00;15.60;;;;;;;12.43;98.21;98279.60;110325;1278;22891;-88
2023/10/10 12:59:46;;;;;;;19.60;17.60;;;;;;;12.44;98.39;98277.86;110321;1278;22362;-87
2023/10/10 13:02:15;;;;;;;20.10;17.20;;;;;;;12.47;98.83;98276.95;110213;1278;23215;-87
2023/10/10 13:04:46;;;;;;;18.70;16.60;;;;;;;12.53;98.94;98276.05;110316;1278;22206;-88
2023/10/10 13:07:18;;;;;;;17.80;15.30;;;;;;;12.58;98.62;98280.29;110184;1272;22222;-87
2023/10/10 13:09:46;;;;;;;18.50;16.50;;;;;;;12.59;98.19;98277.40;110306;1278;22228;-87
2023/10/10 13:12:27;;;;;;;17.50;15.70;;;;;;;12.62;98.44;98279.73;110356;1278;22210;-87
2023/10/10 13:15:16;;;;;;;18.10;16.40;;;;;;;12.64;98.28;98278.85;110335;1278;22216;-87
2023/10/10 13:20:44;;;;;;;21.70;19.30;;;;;;;12.58;98.13;98275.96;110243;1278;22385;-87
2023/10/10 13:23:19;;;;;;;24.60;20.30;;;;;;;12.55;98.35;98271.00;110187;1278;22203;-87
2023/10/10 13:25:48;;;;;;;22.20;18.90;;;;;;;12.58;98.39;98261.03;110172;1278;22256;-86
2023/10/10 13:28:17;;;;;;;21.30;19.20;;;;;;;12.62;98.47;98253.54;110338;1278;23136;-87
2023/10/10 13:30:48;;;;;;;23.10;20.80;;;;;;;12.65;98.21;98245.86;110186;1278;22326;-87
2023/10/10 13:33:20;;;;;;;24.20;21.90;;;;;;;12.63;98.01;98246.27;110373;1278;22210;-87
2023/10/10 13:35:48;;;;;;;27.20;24.60;;;;;;;12.62;97.97;98245.11;110379;1278;22219;-86
2023/10/10 13:38:17;;;;;;;23.70;20.40;;;;;;;12.62;98.33;98241.27;110365;1278;22207;-87
2023/10/10 13:40:46;;;;;;;19.50;17.50;;;;;;;12.66;97.93;98243.95;110348;1278;22248;-87
2023/10/10 13:43:17;;;;;;;19.80;17.80;;;;;;;12.68;97.94;98242.45;110334;1267;22153;-85
2023/10/10 13:45:48;;;;;;;20.70;18.50;;;;;;;12.71;98.04;98256.48;110315;1278;22227;-88
2023/10/10 13:48:18;;;;;;;18.30;16.40;;;;;;;12.71;98.14;98264.33;110336;1278;22942;-87
2023/10/10 13:50:50;;;;;;;18.60;16.10;;;;;;;12.69;98.17;98262.80;110318;1278;22216;-88
2023/10/10 13:53:20;;;;;;;18.00;16.10;;;;;;;12.70;98.46;98252.73;110324;1278;22226;-88
2023/10/10 13:55:48;;;;;;;19.80;17.80;;;;;;;12.70;98.28;98246.05;110349;1278;22817;-87
2023/10/10 13:58:16;;;;;;;20.40;16.70;;;;;;;12.69;98.05;98248.59;110319;1278;22221;-88
2023/10/10 14:01:13;;;;;;;19.90;18.00;;;;;;;12.71;98.14;98251.77;110269;1278;22232;-87
2023/10/10 14:03:46;;;;;;;22.50;17.50;;;;;;;12.72;98.11;98246.89;110337;1278;22213;-88
2023/10/10 14:06:26;;;;;;;20.60;18.30;;;;;;;12.72;98.34;98247.77;110338;1278;22878;-87
2023/10/10 14:08:57;;;;;;;23.10;19.30;;;;;;;12.72;98.30;98249.53;110349;1278;22532;-87
2023/10/10 14:11:25;;;;;;;21.70;19.50;;;;;;;12.72;98.55;98252.31;110199;1278;22190;-87
2023/10/10 14:13:54;;;;;;;24.10;18.00;;;;;;;12.69;98.41;98251.60;110159;1278;22374;-87
2023/10/10 14:16:23;;;;;;;20.80;18.40;;;;;;;12.73;98.64;98256.29;110171;1278;22271;-87
2023/10/10 14:18:51;;;;;;;18.90;17.00;;;;;;;12.77;98.36;98255.56;110316;1278;22294;-87
2023/10/10 14:21:28;;;;;;;17.90;16.10;;;;;;;12.78;98.20;98257.27;110325;1278;23095;-86
2023/10/10 14:24:08;;;;;;;20.20;18.10;;;;;;;12.78;98.32;98254.23;110328;1278;22377;-86
2023/10/10 14:26:36;;;;;;;21.00;18.90;;;;;;;12.77;98.35;98254.34;110319;1278;22232;-86
2023/10/10 14:29:06;;;;;;;24.50;19.80;;;;;;;12.78;98.77;98252.35;110315;1278;22883;-86
2023/10/10 14:31:42;;;;;;;22.70;20.50;;;;;;;12.81;98.61;98252.70;110196;1278;22210;-86
2023/10/10 14:34:19;;;;;;;23.80;21.50;;;;;;;12.86;98.72;98250.20;110332;1278;22310;-86
2023/10/10 14:36:51;;;;;;;22.90;20.40;;;;;;;12.93;98.54;98238.80;110196;1278;22303;-87
2023/10/10 14:39:28;;;;;;;24.80;22.00;;;;;;;12.93;98.64;98243.01;110328;1278;22963;-86